Time;durP1;ratioP1;P1;durP2;ratioP2;P2;SDS_P1;SDS_P2;PMS_P1;PMS_P2;Temp;Humidity;BMP_temperature;BMP_pressure;BME280_temperature;BME280_humidity;BME280_pressure;Samples;Min_cycle;Max_cycle;Signal;HPM_P1;HPM_P2
2021/09/30 00:01:02;;;;;;;365.27;349.73;;;9.30;99.90;;;;;;4297836;33;20152;-69
2021/09/30 00:03:32;;;;;;;337.73;323.10;;;9.30;99.90;;;;;;4288466;33;20582;-68
2021/09/30 00:06:06;;;;;;;340.70;326.07;;;9.30;99.90;;;;;;4328482;33;20180;-68
2021/09/30 00:08:35;;;;;;;340.70;326.27;;;9.30;99.90;;;;;;4337323;33;20238;-67
2021/09/30 00:11:08;;;;;;;354.40;339.10;;;9.30;99.90;;;;;;4356652;32;20183;-67
2021/09/30 00:13:43;;;;;;;355.03;339.80;;;9.30;99.90;;;;;;4370405;32;20461;-68
2021/09/30 00:16:34;;;;;;;342.53;327.70;;;9.30;99.90;;;;;;4365269;32;20157;-68
2021/09/30 00:33:06;;;;;;;370.27;354.30;;;9.60;99.90;;;;;;4362049;32;20205;-67
2021/09/30 00:35:42;;;;;;;385.80;369.00;;;9.50;99.90;;;;;;4361507;32;20216;-67
2021/09/30 00:46:31;;;;;;;365.83;350.23;;;9.60;99.90;;;;;;4370061;32;20186;-66
2021/09/30 00:49:15;;;;;;;369.37;353.63;;;9.60;99.90;;;;;;4358111;33;20169;-67
2021/09/30 00:51:57;;;;;;;366.70;350.90;;;9.60;99.90;;;;;;4358335;33;20212;-67
2021/09/30 01:46:41;;;;;;;289.87;277.50;;;8.90;99.90;;;;;;4363234;32;20216;-66
2021/09/30 01:52:18;;;;;;;312.30;299.20;;;8.90;99.90;;;;;;4362592;32;20507;-65
2021/09/30 02:20:38;;;;;;;316.77;303.47;;;8.80;99.90;;;;;;4363436;32;20192;-66
2021/09/30 02:26:10;;;;;;;321.37;307.63;;;8.80;99.90;;;;;;4368490;32;20543;-68
2021/09/30 02:28:50;;;;;;;332.33;318.13;;;8.80;99.90;;;;;;4371374;32;20506;-65
2021/09/30 02:40:09;;;;;;;313.23;300.27;;;8.70;99.90;;;;;;4345225;33;20175;-67
2021/09/30 02:59:22;;;;;;;287.70;275.43;;;8.70;99.90;;;;;;4331732;33;20197;-66
2021/09/30 03:01:52;;;;;;;280.80;268.67;;;8.70;99.90;;;;;;4330595;33;20171;-66
2021/09/30 03:04:21;;;;;;;308.60;296.13;;;8.60;99.90;;;;;;4345122;33;20164;-67
2021/09/30 03:06:50;;;;;;;308.40;294.93;;;8.60;99.90;;;;;;4345232;33;20169;-66
2021/09/30 03:09:20;;;;;;;290.77;278.73;;;8.60;99.90;;;;;;4345142;33;20185;-66
2021/09/30 03:11:50;;;;;;;307.07;293.97;;;8.60;99.90;;;;;;4344253;33;20161;-66
2021/09/30 03:14:19;;;;;;;287.97;275.70;;;8.60;99.90;;;;;;4361949;32;20172;-65
2021/09/30 03:16:51;;;;;;;303.83;291.03;;;8.60;99.90;;;;;;4377457;32;20548;-65
2021/09/30 03:19:33;;;;;;;293.27;280.70;;;8.60;99.90;;;;;;4374705;32;20216;-66
2021/09/30 03:22:15;;;;;;;293.77;280.77;;;8.70;99.90;;;;;;4361428;33;20153;-65
2021/09/30 03:24:47;;;;;;;281.63;269.73;;;8.60;99.90;;;;;;4373869;32;20188;-64
2021/09/30 03:27:25;;;;;;;310.97;297.73;;;8.60;99.90;;;;;;4376145;32;20153;-66
2021/09/30 03:30:00;;;;;;;304.03;291.37;;;8.60;99.90;;;;;;4376263;32;20204;-65
2021/09/30 03:32:33;;;;;;;295.53;283.07;;;8.60;99.90;;;;;;4376067;32;20153;-65
2021/09/30 03:35:02;;;;;;;274.63;263.23;;;8.60;99.90;;;;;;4376053;32;20182;-65
2021/09/30 03:37:32;;;;;;;274.60;262.70;;;8.60;99.90;;;;;;4365626;32;20148;-66
2021/09/30 03:40:01;;;;;;;316.80;303.67;;;8.60;99.90;;;;;;4361763;32;20649;-66
2021/09/30 03:42:28;;;;;;;294.17;281.73;;;8.60;99.90;;;;;;4361072;33;20168;-68
2021/09/30 03:44:55;;;;;;;290.30;278.33;;;8.60;99.90;;;;;;4361568;32;20156;-68
2021/09/30 03:47:23;;;;;;;299.07;286.30;;;8.60;99.90;;;;;;4361231;32;20199;-67
2021/09/30 03:49:51;;;;;;;269.00;257.30;;;8.60;99.90;;;;;;4361432;32;20172;-66
2021/09/30 03:52:23;;;;;;;282.50;269.80;;;8.60;99.90;;;;;;4360998;33;20151;-66
2021/09/30 03:55:16;;;;;;;291.43;279.00;;;8.60;99.90;;;;;;4362041;32;20160;-66
2021/09/30 03:59:04;;;;;;;252.03;241.20;;;8.60;99.90;;;;;;4360908;33;20609;-67
2021/09/30 04:00:37;;;;;;;274.57;262.87;;;8.50;99.90;;;;;;4362319;32;20570;-67
2021/09/30 04:03:04;;;;;;;276.47;264.80;;;8.50;99.90;;;;;;4362352;32;20570;-67
2021/09/30 04:05:31;;;;;;;269.33;257.90;;;8.50;99.90;;;;;;4361460;32;20211;-67
2021/09/30 04:07:58;;;;;;;269.50;257.90;;;8.50;99.90;;;;;;4360731;33;20148;-66
2021/09/30 04:10:26;;;;;;;287.37;275.30;;;8.50;99.90;;;;;;4361104;32;20165;-68
2021/09/30 04:12:53;;;;;;;274.23;262.63;;;8.50;99.90;;;;;;4372967;32;20214;-66
2021/09/30 04:15:20;;;;;;;292.70;280.00;;;8.50;99.90;;;;;;4375688;32;20544;-66
2021/09/30 04:17:47;;;;;;;298.53;285.57;;;8.50;99.90;;;;;;4375544;32;20185;-65
2021/09/30 04:20:17;;;;;;;272.63;261.37;;;8.60;99.90;;;;;;4375617;32;20172;-64
2021/09/30 04:22:44;;;;;;;284.87;272.43;;;8.50;99.90;;;;;;4375433;32;20162;-64
2021/09/30 04:25:11;;;;;;;280.60;268.63;;;8.50;99.90;;;;;;4374540;32;20208;-65
2021/09/30 04:27:39;;;;;;;265.47;254.47;;;8.50;99.90;;;;;;4371236;32;20632;-66
2021/09/30 04:30:08;;;;;;;251.73;241.10;;;8.50;99.90;;;;;;4361362;32;20172;-65
2021/09/30 04:32:34;;;;;;;272.13;260.53;;;8.50;99.90;;;;;;4360669;32;20719;-65
2021/09/30 04:35:01;;;;;;;290.67;278.33;;;8.50;99.90;;;;;;4361064;32;20157;-66
2021/09/30 04:37:28;;;;;;;281.27;268.70;;;8.50;99.90;;;;;;4360313;33;20573;-66
2021/09/30 04:39:55;;;;;;;293.90;281.13;;;8.60;99.90;;;;;;4361814;33;20176;-64
2021/09/30 04:42:22;;;;;;;309.00;295.90;;;8.50;99.90;;;;;;4360388;33;20154;-65
2021/09/30 04:44:50;;;;;;;278.93;267.23;;;8.50;99.90;;;;;;4366131;32;20168;-66
2021/09/30 04:47:17;;;;;;;266.23;255.00;;;8.50;99.90;;;;;;4375214;32;20171;-66
2021/09/30 04:49:45;;;;;;;298.03;285.63;;;8.50;99.90;;;;;;4379397;32;20154;-66
2021/09/30 04:52:12;;;;;;;274.33;262.87;;;8.50;99.90;;;;;;4378436;32;20216;-64
2021/09/30 04:54:39;;;;;;;271.83;260.00;;;8.40;99.90;;;;;;4379779;32;20513;-64
2021/09/30 04:57:07;;;;;;;287.77;275.63;;;8.40;99.90;;;;;;4378985;32;20503;-66
2021/09/30 04:59:34;;;;;;;271.77;260.53;;;8.40;99.90;;;;;;4379806;32;20488;-64
2021/09/30 05:02:02;;;;;;;282.07;269.83;;;8.40;99.90;;;;;;4373846;32;20179;-65
2021/09/30 05:04:32;;;;;;;271.27;260.23;;;8.40;99.90;;;;;;4367684;32;20155;-66
2021/09/30 05:07:00;;;;;;;267.53;255.80;;;8.30;99.90;;;;;;4367172;32;20178;-65
2021/09/30 05:09:28;;;;;;;267.27;255.67;;;8.40;99.90;;;;;;4353294;32;20262;-66
2021/09/30 05:12:01;;;;;;;263.63;252.57;;;8.30;99.90;;;;;;4374303;32;20165;-65
2021/09/30 05:14:41;;;;;;;249.40;238.83;;;8.30;99.90;;;;;;4364597;32;20159;-66
2021/09/30 05:17:38;;;;;;;251.63;240.83;;;8.30;99.90;;;;;;4362506;32;20206;-65
2021/09/30 05:20:13;;;;;;;248.80;237.53;;;8.20;99.90;;;;;;4360637;32;20640;-65
2021/09/30 05:22:47;;;;;;;245.80;235.33;;;8.30;99.90;;;;;;4364463;32;20650;-64
2021/09/30 05:25:33;;;;;;;269.73;258.27;;;8.30;99.90;;;;;;4363484;32;20199;-64
2021/09/30 05:28:02;;;;;;;262.40;251.53;;;8.30;99.90;;;;;;4374920;32;20171;-66
2021/09/30 05:30:29;;;;;;;263.80;252.50;;;8.30;99.90;;;;;;4374523;32;20194;-64
2021/09/30 05:32:57;;;;;;;278.00;265.97;;;8.30;99.90;;;;;;4374620;32;20234;-65
2021/09/30 05:35:24;;;;;;;266.30;254.87;;;8.30;99.90;;;;;;4374304;32;20180;-65
2021/09/30 05:37:51;;;;;;;284.63;272.27;;;8.30;99.90;;;;;;4374857;32;20239;-63
2021/09/30 05:40:19;;;;;;;284.70;272.47;;;8.40;99.90;;;;;;4373210;32;20175;-64
2021/09/30 05:42:46;;;;;;;290.90;277.97;;;8.40;99.90;;;;;;4373251;32;20599;-65
2021/09/30 05:45:17;;;;;;;289.17;277.10;;;8.40;99.90;;;;;;4376040;32;20249;-64
2021/09/30 05:47:53;;;;;;;295.23;282.83;;;8.40;99.90;;;;;;4376461;32;20178;-65
2021/09/30 05:50:28;;;;;;;282.20;270.17;;;8.50;99.90;;;;;;4374149;32;20161;-63
2021/09/30 05:52:57;;;;;;;299.07;285.47;;;8.50;99.90;;;;;;4375409;32;20505;-64
2021/09/30 05:55:28;;;;;;;282.73;270.70;;;8.50;99.90;;;;;;4375790;32;20180;-63
2021/09/30 05:57:57;;;;;;;303.97;290.57;;;8.50;99.90;;;;;;4374891;32;20210;-64
2021/09/30 06:00:32;;;;;;;301.53;288.43;;;8.50;99.90;;;;;;4375454;32;20180;-64
2021/09/30 06:11:20;;;;;;;296.63;283.40;;;8.70;99.90;;;;;;4375361;32;20662;-63
2021/09/30 06:13:58;;;;;;;315.87;302.43;;;8.70;99.90;;;;;;4378295;32;20464;-64
2021/09/30 06:16:35;;;;;;;298.80;286.17;;;8.80;99.90;;;;;;4375292;32;20165;-66
2021/09/30 06:19:06;;;;;;;327.77;313.43;;;8.80;99.90;;;;;;4375252;32;20198;-62
2021/09/30 06:21:34;;;;;;;316.50;303.20;;;8.90;99.90;;;;;;4377499;32;20624;-66
2021/09/30 06:24:01;;;;;;;320.63;306.47;;;8.90;99.90;;;;;;4377959;32;20176;-62
2021/09/30 06:26:28;;;;;;;288.27;275.40;;;8.90;99.90;;;;;;4375862;32;20176;-64
2021/09/30 06:28:57;;;;;;;280.90;268.83;;;9.00;99.90;;;;;;4374472;32;20161;-65
2021/09/30 06:31:24;;;;;;;280.93;268.60;;;8.90;99.90;;;;;;4375004;32;20172;-66
2021/09/30 06:33:53;;;;;;;290.83;277.67;;;8.90;99.90;;;;;;4376363;32;20553;-66
2021/09/30 06:36:21;;;;;;;290.67;277.70;;;9.00;99.90;;;;;;4373191;32;20642;-66
2021/09/30 06:38:51;;;;;;;290.60;278.23;;;9.00;99.90;;;;;;4376945;32;20199;-63
2021/09/30 06:41:20;;;;;;;282.33;269.77;;;9.00;99.90;;;;;;4371356;32;20446;-64
2021/09/30 06:43:52;;;;;;;323.97;310.20;;;9.00;99.90;;;;;;4377137;32;20182;-63
2021/09/30 06:46:22;;;;;;;297.90;284.97;;;9.10;99.90;;;;;;4374293;32;20200;-63
2021/09/30 06:48:49;;;;;;;300.23;287.77;;;9.20;99.90;;;;;;4374775;32;20180;-63
2021/09/30 06:51:21;;;;;;;305.60;291.90;;;9.30;99.90;;;;;;4376181;32;20166;-62
2021/09/30 06:53:50;;;;;;;335.20;320.80;;;9.40;99.90;;;;;;4374821;32;20230;-65
2021/09/30 06:56:21;;;;;;;328.73;314.57;;;9.60;99.90;;;;;;4372894;32;20176;-65
2021/09/30 06:58:52;;;;;;;312.10;298.37;;;9.70;99.90;;;;;;4377102;32;20179;-66
2021/09/30 07:01:19;;;;;;;335.73;321.10;;;9.80;99.90;;;;;;4372851;32;20218;-64
2021/09/30 07:03:56;;;;;;;338.50;323.53;;;9.90;99.90;;;;;;4375809;32;20176;-63
2021/09/30 07:06:30;;;;;;;341.23;325.83;;;10.00;99.90;;;;;;4375249;32;20194;-66
2021/09/30 07:09:00;;;;;;;318.93;305.37;;;10.20;99.90;;;;;;4378137;32;20169;-62
2021/09/30 07:11:33;;;;;;;316.47;302.33;;;10.20;99.90;;;;;;4375024;32;20667;-63
2021/09/30 07:14:03;;;;;;;339.90;324.73;;;10.30;99.90;;;;;;4376110;32;20500;-64
2021/09/30 07:16:32;;;;;;;278.30;266.20;;;10.30;99.90;;;;;;4376406;32;20222;-64
2021/09/30 07:19:01;;;;;;;309.10;295.33;;;10.40;99.90;;;;;;4377419;32;20149;-63
2021/09/30 07:21:31;;;;;;;300.87;288.27;;;10.30;99.90;;;;;;4377068;32;20186;-64
2021/09/30 07:24:08;;;;;;;283.93;271.20;;;10.30;99.90;;;;;;4376717;32;20163;-66
2021/09/30 07:26:38;;;;;;;297.67;285.10;;;10.30;99.90;;;;;;4376767;32;20220;-63
2021/09/30 07:29:05;;;;;;;293.07;279.87;;;10.20;99.90;;;;;;4377877;32;20154;-65
2021/09/30 07:31:32;;;;;;;327.63;313.33;;;10.30;99.90;;;;;;4376547;32;20573;-66
2021/09/30 07:34:12;;;;;;;304.07;290.87;;;10.50;99.90;;;;;;4376747;32;20187;-65
2021/09/30 07:36:41;;;;;;;319.73;306.03;;;10.70;99.90;;;;;;4377754;32;20178;-66
2021/09/30 07:39:14;;;;;;;306.83;293.03;;;10.90;99.90;;;;;;4376125;32;20186;-66
2021/09/30 07:41:43;;;;;;;322.57;308.30;;;11.00;99.90;;;;;;4377819;32;20170;-63
2021/09/30 07:44:21;;;;;;;320.77;306.60;;;11.40;99.90;;;;;;4376083;32;20567;-63
2021/09/30 07:46:50;;;;;;;269.70;258.17;;;11.70;99.90;;;;;;4377717;32;20576;-65
2021/09/30 07:49:17;;;;;;;241.87;231.63;;;11.70;99.90;;;;;;4375945;32;20160;-63
2021/09/30 07:51:44;;;;;;;230.90;220.93;;;11.60;99.90;;;;;;4375898;32;20188;-66
2021/09/30 07:54:14;;;;;;;231.17;221.00;;;11.40;99.90;;;;;;4376418;32;20167;-65
2021/09/30 07:56:48;;;;;;;256.37;245.83;;;11.30;99.90;;;;;;4376532;32;20204;-65
2021/09/30 07:59:20;;;;;;;215.70;206.10;;;11.30;99.90;;;;;;4375870;32;20165;-64
2021/09/30 08:01:47;;;;;;;248.37;237.37;;;11.40;99.90;;;;;;4376199;32;20153;-65
2021/09/30 08:04:18;;;;;;;252.80;241.80;;;11.60;99.90;;;;;;4376909;32;20187;-65
2021/09/30 08:06:45;;;;;;;275.40;263.57;;;11.80;99.90;;;;;;4376606;32;20168;-65
2021/09/30 08:09:13;;;;;;;246.93;236.30;;;12.10;99.90;;;;;;4377363;32;20175;-65
2021/09/30 08:11:40;;;;;;;218.60;209.40;;;12.30;99.90;;;;;;4375783;32;20141;-67
2021/09/30 08:14:11;;;;;;;235.57;225.10;;;12.30;99.90;;;;;;4375625;32;20153;-67
2021/09/30 08:16:54;;;;;;;248.37;237.57;;;12.50;99.90;;;;;;4375596;32;20152;-66
2021/09/30 08:19:21;;;;;;;214.57;205.27;;;12.60;99.90;;;;;;4376102;32;20174;-64
2021/09/30 08:21:52;;;;;;;223.30;213.73;;;12.90;99.90;;;;;;4375816;32;20149;-64
2021/09/30 08:24:25;;;;;;;241.73;231.07;;;13.10;99.90;;;;;;4376117;32;20179;-68
2021/09/30 08:26:58;;;;;;;241.63;231.37;;;13.40;99.90;;;;;;4375343;32;20581;-63
2021/09/30 08:29:27;;;;;;;243.77;233.23;;;13.70;99.90;;;;;;4375325;32;20255;-64
2021/09/30 08:31:59;;;;;;;250.80;239.80;;;13.90;99.90;;;;;;4320936;32;1725670;-64
2021/09/30 08:34:28;;;;;;;255.50;244.53;;;13.90;99.90;;;;;;4375461;32;20170;-65
2021/09/30 08:37:00;;;;;;;235.67;225.67;;;13.90;99.90;;;;;;4375371;32;20477;-67
2021/09/30 08:39:33;;;;;;;254.33;243.17;;;13.90;99.90;;;;;;4376411;32;20153;-64
2021/09/30 08:42:03;;;;;;;240.37;230.13;;;13.80;99.90;;;;;;4375391;32;20153;-64
2021/09/30 08:44:33;;;;;;;260.27;249.23;;;13.70;99.90;;;;;;4375888;32;20153;-65
2021/09/30 08:47:03;;;;;;;265.03;254.00;;;13.60;99.90;;;;;;4375541;32;20453;-66
2021/09/30 08:49:34;;;;;;;241.70;231.73;;;13.60;99.90;;;;;;4374979;32;20479;-64
2021/09/30 08:52:02;;;;;;;270.63;259.37;;;13.70;99.90;;;;;;4374844;32;20161;-66
2021/09/30 08:54:28;;;;;;;263.60;252.53;;;13.90;99.90;;;;;;4374593;32;20169;-67
2021/09/30 08:56:57;;;;;;;251.90;241.20;;;14.10;99.90;;;;;;4376240;32;20203;-65
2021/09/30 08:59:27;;;;;;;226.13;216.13;;;14.40;99.90;;;;;;4374683;32;20241;-65
2021/09/30 09:02:06;;;;;;;246.23;236.10;;;14.50;99.90;;;;;;4374734;32;20169;-67
2021/09/30 09:04:33;;;;;;;236.60;226.80;;;14.70;99.90;;;;;;4372866;32;20160;-65
2021/09/30 09:07:12;;;;;;;222.87;213.20;;;14.90;99.90;;;;;;4375940;32;20180;-65
2021/09/30 09:09:49;;;;;;;234.40;224.37;;;15.10;99.90;;;;;;4374274;32;20159;-64
2021/09/30 09:12:21;;;;;;;235.03;225.27;;;15.40;99.90;;;;;;4372986;32;20172;-65
2021/09/30 09:14:51;;;;;;;261.50;250.27;;;15.50;99.90;;;;;;4374398;32;20172;-65
2021/09/30 09:17:24;;;;;;;246.57;236.17;;;15.60;99.90;;;;;;4375762;32;20500;-64
2021/09/30 09:19:59;;;;;;;255.77;244.93;;;15.80;99.90;;;;;;4372696;32;20172;-63
2021/09/30 09:22:31;;;;;;;245.13;234.73;;;15.90;99.90;;;;;;4374578;32;20218;-64
2021/09/30 09:25:16;;;;;;;233.77;223.80;;;16.10;99.90;;;;;;4374438;32;20484;-63
2021/09/30 09:27:54;;;;;;;199.57;191.33;;;16.20;99.90;;;;;;4361059;33;20202;-63
2021/09/30 09:30:39;;;;;;;214.03;204.83;;;16.00;99.90;;;;;;4360172;33;20168;-64
2021/09/30 09:33:12;;;;;;;211.93;202.60;;;16.00;99.90;;;;;;4360275;33;20199;-64
2021/09/30 09:35:58;;;;;;;201.30;192.90;;;15.90;99.90;;;;;;4361545;32;20222;-65
2021/09/30 09:38:29;;;;;;;201.60;193.17;;;15.80;99.90;;;;;;4363363;32;20537;-65
2021/09/30 09:41:00;;;;;;;182.77;175.03;;;15.50;99.90;;;;;;4364073;32;20169;-64
2021/09/30 09:43:39;;;;;;;202.07;193.70;;;15.30;99.90;;;;;;4364945;32;20183;-64
2021/09/30 09:46:18;;;;;;;196.83;188.33;;;15.50;99.90;;;;;;4377524;32;20153;-65
2021/09/30 09:49:02;;;;;;;232.87;223.30;;;15.70;99.90;;;;;;4379236;32;20156;-65
2021/09/30 09:51:45;;;;;;;221.90;212.70;;;15.80;99.90;;;;;;4377721;32;20149;-64
2021/09/30 09:54:17;;;;;;;190.83;182.73;;;15.90;99.90;;;;;;4378001;32;20148;-65
2021/09/30 09:56:47;;;;;;;210.00;201.27;;;15.80;99.90;;;;;;4377998;32;20156;-65
2021/09/30 09:59:28;;;;;;;203.17;194.33;;;15.90;99.90;;;;;;4377722;32;20164;-63
2021/09/30 10:01:58;;;;;;;207.63;199.13;;;15.90;99.90;;;;;;4378524;32;20179;-62
2021/09/30 10:04:30;;;;;;;192.83;184.10;;;15.80;99.90;;;;;;4376555;32;20172;-63
2021/09/30 10:06:59;;;;;;;199.47;191.23;;;16.00;99.90;;;;;;4377717;32;20172;-63
2021/09/30 10:09:35;;;;;;;228.97;219.40;;;16.10;99.90;;;;;;4376466;32;20164;-62
2021/09/30 10:12:07;;;;;;;238.83;228.93;;;16.30;99.90;;;;;;4375393;32;20156;-63
2021/09/30 10:14:39;;;;;;;220.43;211.47;;;16.40;99.90;;;;;;4377898;32;20157;-63
2021/09/30 10:17:09;;;;;;;227.20;217.67;;;16.30;99.90;;;;;;4378426;32;20267;-64
2021/09/30 10:19:44;;;;;;;206.97;198.20;;;16.20;99.90;;;;;;4376553;32;20218;-63
2021/09/30 10:22:18;;;;;;;206.63;198.07;;;16.20;99.90;;;;;;4362493;32;20454;-64
2021/09/30 10:24:46;;;;;;;180.67;172.47;;;16.00;99.90;;;;;;4362442;33;20201;-66
2021/09/30 10:27:16;;;;;;;183.33;175.27;;;15.80;99.90;;;;;;4362680;32;20149;-63
2021/09/30 10:29:54;;;;;;;235.20;225.50;;;15.70;99.90;;;;;;4362561;32;20188;-66
2021/09/30 10:32:26;;;;;;;209.07;200.60;;;16.00;99.90;;;;;;4362036;33;20219;-65
2021/09/30 10:35:07;;;;;;;186.90;179.03;;;16.20;99.90;;;;;;4362710;32;20483;-63
2021/09/30 10:37:36;;;;;;;192.10;184.17;;;16.00;99.90;;;;;;4361833;33;20540;-65
2021/09/30 10:40:18;;;;;;;212.37;203.83;;;15.90;99.90;;;;;;4362984;32;20564;-63
2021/09/30 10:43:01;;;;;;;207.73;198.90;;;15.60;99.90;;;;;;4362131;33;20194;-64
2021/09/30 10:45:49;;;;;;;223.80;214.70;;;15.70;99.90;;;;;;4361802;32;20191;-62
2021/09/30 10:48:45;;;;;;;188.53;180.80;;;15.80;99.90;;;;;;4361825;33;20560;-64
2021/09/30 10:51:22;;;;;;;196.40;187.77;;;16.00;99.90;;;;;;4363379;32;20162;-64
2021/09/30 10:54:01;;;;;;;212.30;203.60;;;16.10;99.90;;;;;;4361790;33;20147;-64
2021/09/30 10:56:44;;;;;;;228.40;218.87;;;16.00;99.90;;;;;;4363486;32;20185;-63
2021/09/30 10:59:47;;;;;;;225.17;215.50;;;15.80;99.90;;;;;;4361595;33;20188;-63
2021/09/30 11:02:17;;;;;;;208.17;199.43;;;15.70;99.90;;;;;;4361701;33;20171;-62
2021/09/30 11:05:10;;;;;;;217.27;207.97;;;15.60;99.90;;;;;;4361970;32;20194;-63
2021/09/30 11:07:43;;;;;;;195.67;187.37;;;15.70;99.90;;;;;;4361566;33;20161;-64
2021/09/30 11:10:25;;;;;;;222.30;212.70;;;15.70;99.90;;;;;;4361739;32;20175;-65
2021/09/30 11:13:22;;;;;;;199.90;191.57;;;15.70;99.90;;;;;;4362047;32;20226;-63
2021/09/30 11:16:07;;;;;;;184.73;176.80;;;15.90;99.90;;;;;;4361504;33;20622;-65
2021/09/30 11:18:49;;;;;;;195.00;186.97;;;16.20;99.90;;;;;;4362386;32;20152;-64
2021/09/30 11:21:43;;;;;;;203.63;195.40;;;16.20;99.90;;;;;;4361389;33;20575;-65
2021/09/30 11:24:12;;;;;;;199.23;190.93;;;16.30;99.90;;;;;;4361208;33;20180;-65
2021/09/30 11:27:16;;;;;;;197.77;189.67;;;16.50;99.90;;;;;;4361715;32;20152;-65
2021/09/30 11:29:53;;;;;;;203.30;195.00;;;16.70;99.90;;;;;;4361323;33;20153;-64
2021/09/30 11:32:49;;;;;;;167.50;160.40;;;16.80;99.90;;;;;;4361608;32;20203;-64
2021/09/30 11:35:23;;;;;;;163.10;156.13;;;16.70;99.90;;;;;;4361267;33;20149;-65
2021/09/30 11:37:52;;;;;;;190.43;182.57;;;16.60;99.90;;;;;;4363456;32;20265;-65
2021/09/30 11:40:21;;;;;;;162.57;155.57;;;16.70;99.90;;;;;;4367846;32;20204;-65
2021/09/30 11:42:52;;;;;;;143.30;137.13;;;16.50;99.90;;;;;;4368481;32;20175;-64
2021/09/30 11:45:22;;;;;;;164.53;157.40;;;16.20;99.90;;;;;;4375087;32;20171;-63
2021/09/30 11:47:50;;;;;;;154.40;148.03;;;16.10;99.90;;;;;;4375356;32;20497;-63
2021/09/30 11:50:25;;;;;;;173.17;166.13;;;16.10;99.90;;;;;;4372382;32;20192;-65
2021/09/30 11:53:02;;;;;;;165.57;158.50;;;16.00;99.90;;;;;;4375751;32;20203;-65
2021/09/30 11:55:42;;;;;;;148.57;141.93;;;15.90;99.90;;;;;;4375301;32;20199;-65
2021/09/30 11:58:17;;;;;;;137.80;132.13;;;15.80;99.90;;;;;;4374324;32;20151;-64
2021/09/30 12:00:49;;;;;;;166.40;159.40;;;15.70;99.90;;;;;;4366262;32;20192;-64
2021/09/30 12:03:19;;;;;;;145.67;139.53;;;15.80;99.90;;;;;;4364794;32;20227;-63
2021/09/30 12:05:52;;;;;;;166.17;159.10;;;16.00;99.90;;;;;;4364806;32;20160;-64
2021/09/30 12:08:19;;;;;;;168.23;160.87;;;16.00;99.90;;;;;;4368062;32;20161;-62
2021/09/30 12:10:46;;;;;;;173.70;166.40;;;16.20;99.90;;;;;;4362328;32;20149;-63
2021/09/30 12:13:17;;;;;;;151.43;145.13;;;16.40;99.90;;;;;;4362284;32;20169;-62
2021/09/30 12:22:39;;;;;;;131.90;126.33;;;16.60;99.90;;;;;;4363929;32;20546;-62
2021/09/30 12:25:12;;;;;;;145.30;139.20;;;16.60;99.90;;;;;;4360787;32;20156;-64
2021/09/30 12:27:45;;;;;;;165.17;158.10;;;16.40;99.90;;;;;;4367983;32;20165;-63
2021/09/30 12:30:18;;;;;;;189.87;182.00;;;16.30;99.90;;;;;;4375393;32;20168;-63
2021/09/30 12:33:00;;;;;;;209.50;200.90;;;16.30;99.90;;;;;;4375047;32;20173;-64
2021/09/30 12:35:34;;;;;;;197.50;189.37;;;16.10;99.90;;;;;;4375519;32;20154;-63
2021/09/30 12:38:20;;;;;;;212.40;203.93;;;15.60;99.90;;;;;;4376393;32;20152;-64
2021/09/30 12:40:53;;;;;;;192.87;184.70;;;15.80;99.90;;;;;;4375620;32;20502;-64
2021/09/30 12:43:29;;;;;;;212.67;204.00;;;15.90;99.90;;;;;;4376187;32;20150;-63
2021/09/30 12:46:02;;;;;;;205.93;197.40;;;16.00;99.90;;;;;;4376239;32;20224;-64
2021/09/30 12:48:39;;;;;;;210.27;201.40;;;16.30;99.90;;;;;;4374626;32;20156;-64
2021/09/30 12:51:15;;;;;;;214.43;205.73;;;16.20;99.90;;;;;;4374734;32;20580;-63
2021/09/30 12:53:50;;;;;;;241.90;231.77;;;15.90;99.90;;;;;;4375003;32;20183;-62
2021/09/30 12:56:28;;;;;;;215.67;206.67;;;15.50;99.90;;;;;;4376798;32;20159;-63
2021/09/30 12:59:17;;;;;;;241.43;231.53;;;15.00;99.90;;;;;;4375331;32;20164;-64
2021/09/30 13:01:44;;;;;;;269.17;257.80;;;14.60;99.90;;;;;;4374844;32;20169;-64
2021/09/30 13:04:33;;;;;;;282.17;270.00;;;14.50;99.90;;;;;;4376689;32;20152;-63
2021/09/30 13:07:04;;;;;;;266.90;256.00;;;14.60;99.90;;;;;;4375771;32;20157;-64
2021/09/30 13:09:42;;;;;;;265.73;254.60;;;14.50;99.90;;;;;;4376399;32;20160;-63
2021/09/30 13:12:14;;;;;;;260.90;250.23;;;14.50;99.90;;;;;;4371697;32;20155;-65
2021/09/30 13:14:49;;;;;;;278.10;266.53;;;14.20;99.90;;;;;;4379974;32;20181;-63
2021/09/30 13:17:18;;;;;;;248.73;238.43;;;14.20;99.90;;;;;;4376327;32;20172;-64
2021/09/30 13:19:52;;;;;;;256.77;245.70;;;14.10;99.90;;;;;;4372262;32;20621;-64
2021/09/30 13:22:24;;;;;;;243.50;233.53;;;14.10;99.90;;;;;;4376727;32;20214;-63
2021/09/30 13:25:07;;;;;;;277.10;265.40;;;14.20;99.90;;;;;;4377496;32;20174;-64
2021/09/30 13:27:40;;;;;;;301.67;289.23;;;14.30;99.90;;;;;;4375852;32;20178;-63
2021/09/30 13:30:15;;;;;;;282.37;270.90;;;14.50;99.90;;;;;;4377083;32;20176;-64
2021/09/30 13:32:51;;;;;;;245.03;235.20;;;14.80;99.90;;;;;;4372568;32;20171;-64
2021/09/30 13:35:19;;;;;;;225.03;215.83;;;14.90;99.90;;;;;;4363242;32;20634;-63
2021/09/30 13:37:57;;;;;;;251.40;240.93;;;15.00;99.90;;;;;;4363470;32;20156;-63
2021/09/30 13:40:42;;;;;;;238.13;228.60;;;15.00;99.90;;;;;;4363043;33;20157;-64
2021/09/30 13:43:12;;;;;;;228.27;218.57;;;15.10;99.90;;;;;;4363945;32;20182;-63
2021/09/30 13:45:41;;;;;;;236.27;226.37;;;15.10;99.90;;;;;;4362770;33;20172;-62
2021/09/30 13:48:15;;;;;;;248.33;237.87;;;15.10;99.90;;;;;;4362806;32;20191;-62
2021/09/30 13:50:42;;;;;;;211.17;201.97;;;15.20;99.90;;;;;;4363705;32;20153;-62
2021/09/30 13:53:21;;;;;;;233.93;223.80;;;15.40;99.90;;;;;;4362814;32;20167;-62
2021/09/30 13:55:58;;;;;;;241.10;230.90;;;15.50;99.90;;;;;;4364154;32;20191;-61
2021/09/30 13:58:32;;;;;;;224.07;214.93;;;15.60;99.90;;;;;;4362445;33;20224;-62
2021/09/30 14:01:01;;;;;;;238.30;228.17;;;15.60;99.90;;;;;;4368381;32;20163;-62
2021/09/30 14:03:33;;;;;;;241.60;231.80;;;15.70;99.90;;;;;;4377177;32;20200;-62
2021/09/30 14:06:10;;;;;;;226.20;217.17;;;15.70;99.90;;;;;;4377404;32;20183;-63
2021/09/30 14:08:40;;;;;;;214.53;205.67;;;15.60;99.90;;;;;;4377371;32;20630;-63
2021/09/30 14:11:14;;;;;;;220.23;210.77;;;15.70;99.90;;;;;;4377359;32;20539;-62
2021/09/30 14:13:44;;;;;;;211.97;202.20;;;15.70;99.90;;;;;;4377463;32;20174;-62
2021/09/30 14:16:22;;;;;;;232.80;223.50;;;15.60;99.90;;;;;;4377201;32;20160;-64
2021/09/30 14:19:00;;;;;;;242.10;231.77;;;15.50;99.90;;;;;;4377374;32;20529;-63
2021/09/30 14:24:30;;;;;;;219.30;209.97;;;15.30;99.90;;;;;;4315877;33;20228;-64
2021/09/30 14:27:05;;;;;;;236.13;226.40;;;15.30;99.90;;;;;;4315845;33;20184;-64
2021/09/30 14:29:52;;;;;;;222.60;213.33;;;15.30;99.90;;;;;;4316412;33;20187;-62
2021/09/30 14:32:22;;;;;;;237.80;227.73;;;15.20;99.90;;;;;;4316237;33;20158;-63
2021/09/30 14:35:05;;;;;;;230.40;220.93;;;15.10;99.90;;;;;;4317203;33;20487;-62
2021/09/30 14:37:33;;;;;;;242.47;232.47;;;15.00;99.90;;;;;;4314694;33;20268;-62
2021/09/30 14:40:13;;;;;;;227.63;218.07;;;14.90;99.90;;;;;;4316277;33;20170;-61
2021/09/30 14:42:55;;;;;;;239.57;229.73;;;14.90;99.90;;;;;;4315787;33;20178;-63
2021/09/30 14:45:42;;;;;;;235.37;225.03;;;14.80;99.90;;;;;;4316255;33;20630;-63
2021/09/30 14:48:14;;;;;;;244.40;234.43;;;14.80;99.90;;;;;;4316067;33;20600;-62
2021/09/30 14:50:54;;;;;;;237.27;227.47;;;14.70;99.90;;;;;;4316435;33;20166;-62
2021/09/30 14:53:28;;;;;;;221.73;212.80;;;14.70;99.90;;;;;;4316254;33;20210;-62
2021/09/30 14:56:10;;;;;;;259.87;249.10;;;14.70;99.90;;;;;;4314386;33;20172;-63
2021/09/30 14:58:43;;;;;;;252.43;242.03;;;14.80;99.90;;;;;;4312676;33;20644;-62
2021/09/30 15:01:13;;;;;;;254.60;244.03;;;14.90;99.90;;;;;;4324856;33;20630;-63
2021/09/30 15:03:48;;;;;;;251.07;240.30;;;15.00;99.90;;;;;;4348220;33;20172;-63
2021/09/30 15:06:33;;;;;;;240.17;230.00;;;15.00;99.90;;;;;;4347042;33;20152;-63
2021/09/30 15:09:05;;;;;;;239.93;229.83;;;15.10;99.90;;;;;;4348510;32;20566;-63
2021/09/30 15:11:34;;;;;;;248.37;238.17;;;15.00;99.90;;;;;;4348339;33;20472;-64